ADDS METAR Data INFO
IDs: Format: Raw Decoded Include TAF

Data at: 0901 UTC 20 Oct 2017

PACD 200853Z AUTO 00000KT 10SM OVC110 M01/M03 A2936 RMK AO2 SLP945 T10061028 400611011 56023 TSNO
PACD 200753Z AUTO 00000KT 10SM OVC110 00/M03 A2939 RMK AO2 SLP952 T00001028 TSNO
PACD 200653Z AUTO 00000KT 10SM FEW120 M01/M03 A2941 RMK AO2 SLP960 T10061028 TSNO
PACD 200553Z AUTO 00000KT 10SM CLR M01/M02 A2943 RMK AO2 SLP968 T10061022 10050 21006 56029 TSNO
PACD 200453Z AUTO 00000KT 10SM FEW120 00/M02 A2946 RMK AO2 SLP978 T00001022 TSNO
PACD 200353Z AUTO 00000KT 10SM CLR 02/M02 A2949 RMK AO2 SLP987 T00171022 TSNO
PACD 200253Z AUTO 00000KT 10SM CLR 03/M03 A2952 RMK AO2 SLP997 T00331028 56027 TSNO
PACD 200153Z AUTO 29003KT 10SM CLR 04/M04 A2954 RMK AO2 SLP005 T00441039 TSNO
PACD 200053Z AUTO 33007KT 10SM CLR 05/M03 A2956 RMK AO2 SLP011 T00501033 TSNO
PACD 192353Z 33005KT 10SM FEW039 SCT048 04/M02 A2960 RMK AO2 SLP024 60000 T00441022 10061 20006 58031
PACD 192253Z 36007KT 10SM CLR 05/M02 A2963 RMK AO2 RAB30E39 SLP034 P0000 T00501017
PACD 192153Z 28004KT 9SM CLR 06/M02 A2967 RMK AO2 SLP048 T00561022
PACD 192053Z 30010KT 10SM FEW034 05/M02 A2969 RMK AO2 SLP055 T00501022 56025
PACD 191953Z 29004KT 10SM CLR 04/M02 A2972 RMK AO2 SLP065 T00391017
PACD 191853Z 30008KT 10SM FEW042 SCT050 02/M02 A2973 RMK AO2 SLP070 T00171022
PACD 191753Z 31007KT 10SM BKN033 BKN046 02/M02 A2976 RMK AO2 SLP080 60000 T00171022 10028 20011 56017
PACD 191653Z 31008KT 10SM SCT041 01/M02 A2977 RMK AO2 SLP081 T00111022 $
PACD 191553Z 30010KT 10SM FEW033 SCT047 BKN055 02/M01 A2979 RMK AO2 SLP089 T00171011 $
PACD 191453Z AUTO 29011KT 10SM CLR 02/M02 A2981 RMK AO2 SLP097 60000 T00171022 57017 TSNO $
PACD 191353Z AUTO 30013KT 10SM FEW033 SCT048 02/M02 A2983 RMK AO2 SLP102 T00221017 TSNO $
PACD 191253Z AUTO 31017G25KT 10SM FEW038 03/M02 A2985 RMK AO2 PK WND 31026/1156 RAE08 SLP109 P0000 T00281017 TSNO $
PACD 191153Z AUTO 29021G39KT 7SM RA FEW028 BKN036 03/M01 A2986 RMK AO2 PK WND 31039/1151 RAB53 SLP114 P0000 60000 70009 T00331006 10039 20028 57003 TSNO $
PACD 191053Z AUTO 31018G23KT 10SM FEW038 SCT055 BKN070 03/M01 A2987 RMK AO2 PK WND 31026/0954 SLP114 T00331011 TSNO $
PACD 190953Z AUTO 31019G25KT 10SM FEW040 SCT049 03/M02 A2987 RMK AO2 PK WND 30028/0924 SLP116 T00331017 TSNO $
PACD 190853Z AUTO 31018G26KT 10SM SCT038 BKN046 03/M02 A2987 RMK AO2 PK WND 31027/0820 SLP117 T00331017 400720028 51006 TSNO $
PACD 190753Z AUTO 30018G26KT 10SM FEW029 FEW036 03/M01 A2987 RMK AO2 PK WND 31027/0655 SLP115 T00331006 TSNO $
PACD 190653Z AUTO 31018G25KT 10SM SCT029 BKN036 04/00 A2986 RMK AO2 PK WND 30028/0625 SLP113 T00390000 TSNO $
PACD 190553Z 31018KT 10SM FEW024 SCT032 BKN049 04/01 A2985 RMK AO2 PK WND 31029/0527 RAB26E41 SLP110 P0001 60007 T00390006 10067 20028 51015 $
PACD 190453Z 30019KT 10SM FEW026 SCT033 BKN045 04/01 A2985 RMK AO2 PK WND 31027/0448 SLP108 T00390006 $
PACD 190353Z 30017KT 10SM FEW028 SCT036 BKN044 04/01 A2983 RMK AO2 PK WND 31027/0343 RAE00B21E32 SLP103 P0000 T00390006 $
PACD 190338Z 31019G27KT 10SM FEW021 SCT025 BKN031 04/00 A2983 RMK AO2 PK WND 31027/0332 RAE00B21E32 P0000 T00390000 $
PACD 190322Z 32019KT 10SM -RA BKN023 BKN033 OVC050 03/02 A2983 RMK AO2 PK WND 30026/0300 RAE00B21 P0000 T00330017 $
PACD 190253Z 30018KT 10SM -RA SCT028 BKN040 BKN065 04/02 A2981 RMK AO2 PK WND 30033/0217 RAB03E39B51 SLP096 P0005 60006 T00440017 55000 $
PACD 190242Z 31014KT 10SM SCT024 BKN032 BKN041 04/02 A2981 RMK AO2 PK WND 30033/0217 RAB03E39 P0005 T00390017 $
PACD 190230Z 31019G27KT 10SM -RA FEW022 OVC027 03/02 A2981 RMK AO2 PK WND 30033/0217 RAB03 P0005 T00330017 $
PACD 190217Z 29026G33KT 2 1/2SM +RA BR BKN022 BKN028 BKN035 03/01 A2980 RMK AO2 PK WND 30033/0217 VIS 1 1/2V5 RAB03 P0002 T00330011 $
PACD 190153Z 29019G25KT 10SM FEW029 05/01 A2980 RMK AO2 PK WND 29026/0150 RAE0059 SLP091 P0000 T00500011 $
PACD 190116Z 29020KT 10SM FEW020 SCT029 SCT036 05/01 A2980 RMK AO2 RAE0059 P0000 T00500011 $
PACD 190100Z 28016KT 10SM FEW018 BKN027 OVC120 04/02 A2980 RMK AO2 RAE0059 P0000 T00390022 $
PACD 190053Z 29016G32KT 2 1/2SM -RA BR FEW017 BKN026 BKN085 03/02 A2981 RMK AO2 PK WND 29032/0044 RAB44 SLP094 P0001 T00330022 $
PACD 190048Z 29022G32KT 2 1/2SM RA BR SCT017 BKN028 03/02 A2980 RMK AO2 PK WND 29032/0044 RAB44 P0000 $
PACD 182353Z 31019G31KT 10SM SCT030 BKN050 BKN065 07/02 A2981 RMK AO2 PK WND 30032/2256 SLP096 60000 T00670017 10072 20033 50000 $
PACD 182253Z 30023G28KT 10SM FEW036 SCT042 06/01 A2981 RMK AO2 PK WND 30030/2210 SLP095 T00610006 $
PACD 182153Z 29017KT 10SM FEW041 06/02 A2981 RMK AO2 PK WND 29031/2137 SLP097 T00560017 $